Time;durP1;ratioP1;P1;durP2;ratioP2;P2;SDS_P1;SDS_P2;PMS_P1;PMS_P2;Temp;Humidity;BMP_temperature;BMP_pressure;BME280_temperature;BME280_humidity;BME280_pressure;Samples;Min_cycle;Max_cycle;Signal;HPM_P1;HPM_P2
2021/07/19 00:02:48;;;;;;;4.63;3.30;;;21.50;99.90;21.30;96684.00;;;;5071931;28;20219;-66
2021/07/19 00:05:38;;;;;;;4.17;3.77;;;21.50;99.90;21.50;96675.00;;;;5076130;28;20257;-66
2021/07/19 00:08:39;;;;;;;6.10;3.97;;;21.50;99.90;21.30;96678.00;;;;5084314;28;20199;-65
2021/07/19 00:11:28;;;;;;;3.40;3.10;;;21.50;99.90;21.30;96685.00;;;;5082748;28;20195;-66
2021/07/19 00:14:17;;;;;;;4.83;3.50;;;21.40;99.90;21.50;96678.00;;;;5084007;28;20210;-65
2021/07/19 00:17:07;;;;;;;3.97;3.50;;;21.50;99.90;21.60;96667.00;;;;5082791;28;20203;-65
2021/07/19 00:19:55;;;;;;;5.30;3.73;;;21.50;99.90;21.60;96674.00;;;;5083409;28;20653;-64
2021/07/19 00:22:46;;;;;;;4.70;3.77;;;21.60;99.90;21.40;96668.00;;;;5084480;28;20223;-65
2021/07/19 00:25:36;;;;;;;5.80;3.73;;;21.60;99.90;21.40;96674.00;;;;5072626;28;20435;-65
2021/07/19 00:28:25;;;;;;;3.73;3.20;;;21.50;99.90;21.40;96661.00;;;;5104153;28;20195;-65
2021/07/19 00:31:14;;;;;;;4.17;3.43;;;21.50;99.90;21.30;96667.00;;;;5102872;28;20199;-65
2021/07/19 00:34:05;;;;;;;3.90;3.50;;;21.50;99.90;21.30;96664.00;;;;5086149;28;20263;-65
2021/07/19 00:36:55;;;;;;;7.43;3.57;;;21.50;99.90;21.20;96653.00;;;;5087741;28;20205;-65
2021/07/19 00:39:45;;;;;;;4.47;3.53;;;21.40;99.90;21.20;96650.00;;;;5087923;28;20211;-65
2021/07/19 00:42:36;;;;;;;5.13;3.70;;;21.30;99.90;21.20;96654.00;;;;5105475;28;20219;-65
2021/07/19 00:45:28;;;;;;;6.67;4.30;;;21.30;99.90;21.20;96666.00;;;;5107652;28;20207;-65
2021/07/19 00:48:18;;;;;;;3.93;3.10;;;21.30;99.90;21.20;96658.00;;;;5107539;28;20202;-65
2021/07/19 00:51:07;;;;;;;4.47;3.60;;;21.30;99.90;21.30;96661.00;;;;5105083;28;20574;-66
2021/07/19 00:53:56;;;;;;;6.60;4.00;;;21.30;99.90;21.10;96663.00;;;;5101903;28;20199;-65
2021/07/19 00:56:47;;;;;;;6.10;3.53;;;21.30;99.90;21.20;96662.00;;;;5106246;28;20199;-65
2021/07/19 00:59:37;;;;;;;5.17;4.27;;;21.30;99.90;21.20;96650.00;;;;5106990;28;20204;-65
2021/07/19 01:02:28;;;;;;;4.73;3.63;;;21.20;99.90;21.10;96654.00;;;;5106902;28;20225;-64
2021/07/19 01:05:18;;;;;;;4.57;3.60;;;21.70;99.90;21.20;96649.00;;;;5101977;28;20248;-64
2021/07/19 01:08:08;;;;;;;6.10;4.67;;;21.20;99.90;21.10;96649.00;;;;5102579;28;20212;-64
2021/07/19 01:10:57;;;;;;;4.03;3.27;;;21.20;99.90;21.10;96656.00;;;;5106785;28;20207;-65
2021/07/19 01:13:47;;;;;;;3.40;3.10;;;21.20;99.90;20.90;96638.00;;;;5107913;28;20256;-64
2021/07/19 01:16:36;;;;;;;4.57;4.17;;;21.20;99.90;21.10;96643.00;;;;5106146;28;20548;-65
2021/07/19 01:19:31;;;;;;;7.03;3.73;;;21.20;99.90;21.00;96646.00;;;;5102892;28;20214;-65
2021/07/19 01:23:01;;;;;;;3.93;3.17;;;21.20;99.90;21.10;96648.00;;;;5087010;28;20230;-65
2021/07/19 01:26:32;;;;;;;4.53;3.60;;;21.10;99.90;21.00;96642.00;;;;5086249;28;20205;-65
2021/07/19 01:29:24;;;;;;;8.37;4.53;;;21.10;99.90;21.30;96641.00;;;;5086908;28;20266;-65
2021/07/19 01:32:13;;;;;;;6.30;4.07;;;21.10;99.90;21.40;96643.00;;;;5086579;28;20227;-65
2021/07/19 01:35:05;;;;;;;5.30;4.53;;;21.20;99.90;21.40;96644.00;;;;5088190;28;20209;-65
2021/07/19 01:37:55;;;;;;;5.50;4.90;;;21.30;99.90;21.30;96647.00;;;;5086616;28;20203;-65
2021/07/19 01:40:45;;;;;;;9.23;4.87;;;21.30;99.90;21.40;96649.00;;;;5084008;28;20223;-65
2021/07/19 01:43:35;;;;;;;4.87;4.37;;;21.40;99.90;21.30;96642.00;;;;5094700;28;20229;-66
2021/07/19 01:46:27;;;;;;;6.93;4.37;;;21.40;99.90;21.40;96638.00;;;;5074258;28;20214;-65
2021/07/19 01:49:16;;;;;;;8.00;4.87;;;21.40;99.90;21.30;96649.00;;;;5086643;28;20686;-65
2021/07/19 01:52:07;;;;;;;7.83;4.37;;;21.40;99.90;21.60;96634.00;;;;5086283;28;20226;-65
2021/07/19 01:54:57;;;;;;;5.20;4.60;;;21.50;99.90;21.70;96644.00;;;;5086864;28;20203;-65
2021/07/19 01:57:46;;;;;;;9.37;5.10;;;21.50;99.90;21.50;96641.00;;;;5086182;28;20593;-66
2021/07/19 02:00:35;;;;;;;9.83;5.20;;;21.60;99.90;21.30;96646.00;;;;5085068;28;20217;-65
2021/07/19 02:03:25;;;;;;;6.57;4.90;;;21.60;99.90;21.30;96646.00;;;;5085768;28;20595;-65
2021/07/19 02:06:16;;;;;;;7.77;5.30;;;21.50;99.90;21.20;96648.00;;;;5072745;28;20214;-66
2021/07/19 02:09:07;;;;;;;5.83;4.60;;;21.40;99.90;21.20;96639.00;;;;5076182;28;20199;-65
2021/07/19 02:12:00;;;;;;;8.83;6.07;;;21.40;99.90;21.10;96640.00;;;;5085528;28;20229;-65
2021/07/19 02:14:50;;;;;;;8.43;6.07;;;21.30;99.90;21.00;96645.00;;;;5087015;28;20200;-65
2021/07/19 02:17:39;;;;;;;7.73;5.40;;;21.30;99.90;21.10;96639.00;;;;5085581;28;20206;-65
2021/07/19 02:20:31;;;;;;;7.33;4.73;;;21.20;99.90;21.00;96640.00;;;;5085544;28;20586;-65
2021/07/19 02:23:21;;;;;;;7.30;5.53;;;21.20;99.90;21.10;96644.00;;;;5085722;28;20235;-65
2021/07/19 02:26:11;;;;;;;6.30;4.27;;;21.20;99.90;21.10;96647.00;;;;5085447;28;20203;-66
2021/07/19 02:29:00;;;;;;;6.97;5.20;;;21.20;99.90;21.10;96650.00;;;;5085336;28;20214;-65
2021/07/19 02:31:50;;;;;;;5.83;4.70;;;21.20;99.90;21.10;96648.00;;;;5084253;28;20599;-64
2021/07/19 02:34:39;;;;;;;4.97;4.00;;;21.20;99.90;21.50;96651.00;;;;5085174;28;20209;-66
2021/07/19 02:37:29;;;;;;;5.57;4.13;;;21.20;99.90;21.40;96642.00;;;;5085767;28;20203;-65
2021/07/19 02:40:21;;;;;;;8.87;4.60;;;21.30;99.90;21.40;96636.00;;;;5070395;28;20296;-65
2021/07/19 02:43:11;;;;;;;7.43;4.73;;;21.40;99.90;21.40;96646.00;;;;5076091;28;20232;-65
2021/07/19 02:46:01;;;;;;;5.97;3.73;;;21.40;99.90;21.40;96643.00;;;;5083157;28;20210;-65
2021/07/19 02:48:54;;;;;;;8.83;4.77;;;21.40;99.90;21.60;96638.00;;;;5085281;28;20214;-65
2021/07/19 02:51:44;;;;;;;5.63;4.43;;;21.50;99.40;21.70;96634.00;;;;5084837;28;20202;-66
2021/07/19 02:54:36;;;;;;;5.93;4.20;;;21.50;99.10;21.50;96628.00;;;;5085584;28;20211;-64
2021/07/19 02:57:25;;;;;;;6.57;4.17;;;21.60;99.60;21.30;96645.00;;;;5084697;28;20307;-65
2021/07/19 03:00:17;;;;;;;6.50;4.77;;;21.60;99.90;21.20;96638.00;;;;5085744;28;20221;-66
2021/07/19 03:03:09;;;;;;;7.53;4.40;;;21.50;99.90;21.20;96635.00;;;;5068598;28;20239;-64
2021/07/19 03:06:05;;;;;;;6.83;4.10;;;21.40;99.90;21.20;96638.00;;;;5073280;28;20203;-65
2021/07/19 03:08:55;;;;;;;5.77;4.57;;;21.30;99.90;21.10;96645.00;;;;5073363;28;20211;-65
2021/07/19 03:11:49;;;;;;;8.43;4.77;;;21.30;99.90;21.00;96632.00;;;;5084028;28;20207;-65
2021/07/19 03:14:39;;;;;;;5.87;4.17;;;21.20;99.90;21.00;96638.00;;;;5085713;28;20210;-65
2021/07/19 03:17:29;;;;;;;7.27;4.00;;;21.20;99.90;21.30;96653.00;;;;5083814;28;20211;-66
2021/07/19 03:20:18;;;;;;;5.47;4.47;;;21.20;99.90;21.20;96641.00;;;;5083890;28;20215;-67
2021/07/19 03:23:12;;;;;;;5.77;4.43;;;21.20;99.90;21.30;96647.00;;;;5085314;28;20226;-66
2021/07/19 03:26:02;;;;;;;6.00;4.37;;;21.20;99.60;21.80;96653.00;;;;5084935;28;20207;-68
2021/07/19 03:28:54;;;;;;;6.47;4.90;;;21.40;98.30;21.50;96650.00;;;;5072800;28;20207;-67
2021/07/19 03:31:44;;;;;;;5.60;4.17;;;21.50;98.90;21.40;96642.00;;;;5084559;28;20203;-65
2021/07/19 03:34:33;;;;;;;6.93;5.43;;;21.50;99.00;21.30;96641.00;;;;5084425;28;20211;-65
2021/07/19 03:37:22;;;;;;;7.57;4.27;;;21.50;98.70;21.30;96647.00;;;;5085018;28;20211;-66
2021/07/19 03:40:13;;;;;;;5.63;4.40;;;21.50;98.40;21.40;96647.00;;;;5083513;28;20217;-66
2021/07/19 03:43:03;;;;;;;6.30;4.60;;;21.40;98.70;21.30;96656.00;;;;5084856;28;20235;-66
2021/07/19 03:45:54;;;;;;;4.40;3.93;;;21.40;99.00;21.50;96651.00;;;;5083405;28;20203;-65
2021/07/19 03:48:43;;;;;;;5.93;3.40;;;21.40;98.10;21.50;96640.00;;;;5071772;28;20203;-66
2021/07/19 03:51:32;;;;;;;8.60;4.50;;;21.50;97.70;21.60;96649.00;;;;5094184;28;20218;-65
2021/07/19 03:54:21;;;;;;;8.33;4.53;;;21.50;97.50;21.60;96644.00;;;;5077893;28;20211;-65
2021/07/19 03:57:11;;;;;;;6.47;4.40;;;21.60;97.30;21.50;96647.00;;;;5084163;28;20191;-65
2021/07/19 04:00:00;;;;;;;5.33;4.83;;;21.60;97.50;21.30;96643.00;;;;5083431;28;20207;-65
2021/07/19 04:02:53;;;;;;;7.03;4.53;;;21.60;99.30;21.30;96648.00;;;;5083786;28;20227;-65
2021/07/19 04:05:44;;;;;;;6.93;4.37;;;21.50;98.90;21.30;96654.00;;;;5074370;28;20204;-65
2021/07/19 04:08:35;;;;;;;5.83;4.00;;;21.40;98.50;21.20;96635.00;;;;5085223;28;20215;-66
2021/07/19 04:11:26;;;;;;;4.50;4.07;;;21.40;98.70;21.30;96649.00;;;;5088439;28;20210;-65
2021/07/19 04:14:15;;;;;;;6.53;3.80;;;21.40;98.60;21.20;96655.00;;;;5089673;28;20199;-65
2021/07/19 04:17:06;;;;;;;6.50;4.77;;;21.40;99.10;21.10;96656.00;;;;5088600;28;20202;-66
2021/07/19 04:19:58;;;;;;;11.20;4.53;;;21.30;99.80;21.10;96655.00;;;;5088553;28;20202;-66
2021/07/19 04:22:48;;;;;;;5.17;3.77;;;21.30;99.60;21.10;96648.00;;;;5087693;28;20238;-65
2021/07/19 04:25:38;;;;;;;7.23;4.30;;;21.30;99.90;21.10;96654.00;;;;5087743;28;20218;-66
2021/07/19 04:28:27;;;;;;;5.67;3.67;;;21.20;99.70;21.00;96636.00;;;;5089029;28;20217;-66
2021/07/19 04:31:17;;;;;;;6.43;5.00;;;21.20;99.90;21.10;96645.00;;;;5085314;28;20206;-66
2021/07/19 04:34:06;;;;;;;5.23;3.83;;;21.20;99.90;21.20;96639.00;;;;5087524;28;20207;-66
2021/07/19 04:36:59;;;;;;;4.77;3.87;;;21.20;99.50;21.20;96633.00;;;;5087968;28;20206;-67
2021/07/19 04:39:49;;;;;;;7.97;4.37;;;21.20;99.20;21.10;96640.00;;;;5087606;28;20215;-67
2021/07/19 04:42:40;;;;;;;5.73;4.03;;;21.20;99.40;21.40;96632.00;;;;5072108;28;20726;-67
2021/07/19 04:45:29;;;;;;;8.53;4.17;;;21.30;97.90;21.40;96635.00;;;;5081760;28;20210;-68
2021/07/19 04:48:19;;;;;;;6.30;4.17;;;21.30;97.90;21.20;96637.00;;;;5088528;28;20215;-67
2021/07/19 04:51:08;;;;;;;8.03;4.20;;;21.30;99.40;21.30;96651.00;;;;5091469;28;20215;-67
2021/07/19 04:54:00;;;;;;;11.87;6.07;;;21.30;97.70;21.20;96651.00;;;;5087600;28;20203;-66
2021/07/19 04:56:51;;;;;;;6.63;4.83;;;21.30;98.70;21.40;96648.00;;;;5077496;28;20309;-66
2021/07/19 04:59:44;;;;;;;7.53;4.67;;;21.40;97.20;21.40;96653.00;;;;5086211;28;20218;-66
2021/07/19 05:02:36;;;;;;;6.67;4.53;;;21.40;97.10;21.30;96650.00;;;;5085682;28;20227;-65
2021/07/19 05:05:27;;;;;;;6.20;4.40;;;21.40;97.60;21.20;96641.00;;;;5080168;28;20207;-65
2021/07/19 05:08:20;;;;;;;5.67;4.20;;;21.40;99.10;21.20;96641.00;;;;5083864;28;20216;-65
2021/07/19 05:11:11;;;;;;;4.50;3.30;;;21.40;99.90;21.20;96635.00;;;;5083238;28;20572;-65
2021/07/19 05:14:01;;;;;;;4.60;3.70;;;21.30;99.90;21.10;96646.00;;;;5077359;28;20199;-66
2021/07/19 05:16:51;;;;;;;6.63;4.53;;;21.30;99.90;21.10;96643.00;;;;5086991;28;20261;-65
2021/07/19 05:19:41;;;;;;;9.20;5.27;;;21.30;99.90;21.10;96632.00;;;;5086278;28;20230;-66
2021/07/19 05:22:30;;;;;;;7.37;5.20;;;21.20;99.90;21.30;96645.00;;;;5086786;28;20631;-66
2021/07/19 05:25:25;;;;;;;6.87;4.80;;;21.30;99.90;21.50;96631.00;;;;5087505;28;20215;-65
2021/07/19 05:28:16;;;;;;;7.13;4.83;;;21.30;99.90;21.80;96637.00;;;;5087188;28;20200;-65
2021/07/19 05:31:05;;;;;;;10.67;5.90;;;21.50;99.90;22.00;96628.00;;;;5078860;28;20462;-62
2021/07/19 05:33:54;;;;;;;6.90;5.13;;;21.70;99.90;22.30;96632.00;;;;5087892;28;20208;-65
2021/07/19 05:36:43;;;;;;;6.20;5.20;;;21.90;99.50;22.50;96635.00;;;;5086866;28;20217;-65
2021/07/19 05:39:32;;;;;;;8.27;5.30;;;22.10;99.10;22.60;96629.00;;;;5088612;28;20674;-66
2021/07/19 05:42:21;;;;;;;7.10;5.77;;;22.30;98.50;22.70;96629.00;;;;5087210;28;20222;-65
2021/07/19 05:45:13;;;;;;;7.77;5.43;;;22.50;95.50;22.90;96633.00;;;;5078978;28;20199;-66
2021/07/19 05:48:02;;;;;;;10.63;6.23;;;22.60;96.00;23.00;96634.00;;;;5087276;28;20202;-66
2021/07/19 05:50:51;;;;;;;6.60;5.00;;;22.80;95.10;23.00;96640.00;;;;5088826;28;21103;-65
2021/07/19 05:53:40;;;;;;;9.27;4.43;;;22.90;93.20;23.20;96645.00;;;;5085822;28;20288;-64
2021/07/19 05:56:31;;;;;;;9.70;5.37;;;23.00;94.00;23.30;96643.00;;;;5086370;28;20213;-65
2021/07/19 05:59:20;;;;;;;8.93;5.27;;;23.10;93.90;23.30;96647.00;;;;5087071;28;20215;-66
2021/07/19 06:02:10;;;;;;;7.23;5.30;;;23.20;91.70;23.10;96639.00;;;;5084615;28;20253;-66
2021/07/19 06:04:59;;;;;;;10.33;5.47;;;23.30;91.70;23.00;96648.00;;;;5072898;28;20734;-66
2021/07/19 06:07:48;;;;;;;6.90;5.17;;;23.30;91.20;23.00;96651.00;;;;5078913;28;20199;-66
2021/07/19 06:10:37;;;;;;;9.00;5.57;;;23.20;91.60;23.00;96640.00;;;;5075544;28;20287;-66
2021/07/19 06:13:26;;;;;;;7.97;5.23;;;23.10;92.70;22.80;96644.00;;;;5075188;28;20219;-66
2021/07/19 06:16:15;;;;;;;5.30;4.80;;;23.10;92.90;23.00;96644.00;;;;5084656;28;20199;-66
2021/07/19 06:19:06;;;;;;;8.40;4.73;;;23.10;93.00;23.20;96634.00;;;;5085988;28;20727;-66
2021/07/19 06:21:55;;;;;;;7.47;5.17;;;23.20;91.70;23.70;96632.00;;;;5066389;28;20229;-66
2021/07/19 06:24:45;;;;;;;8.07;4.67;;;23.30;92.60;23.90;96638.00;;;;5065724;28;20238;-66
2021/07/19 06:27:34;;;;;;;6.43;4.87;;;23.50;93.00;24.00;96637.00;;;;5065110;28;20271;-66
2021/07/19 06:30:23;;;;;;;12.67;5.70;;;23.70;92.00;23.80;96647.00;;;;5058789;28;20502;-66
2021/07/19 06:33:12;;;;;;;11.20;5.40;;;23.70;91.40;23.80;96628.00;;;;5065548;28;20387;-66
2021/07/19 06:36:03;;;;;;;7.83;4.93;;;23.80;90.60;23.80;96648.00;;;;5067155;28;20337;-66
2021/07/19 06:38:52;;;;;;;7.40;4.87;;;23.80;90.20;23.50;96631.00;;;;5066531;28;20625;-67
2021/07/19 06:41:41;;;;;;;5.80;4.60;;;23.80;90.30;23.50;96646.00;;;;5067676;28;20314;-66
2021/07/19 06:44:29;;;;;;;5.23;3.97;;;23.70;90.80;23.50;96654.00;;;;5064230;28;20228;-66
2021/07/19 06:47:18;;;;;;;8.90;5.27;;;23.70;90.30;23.70;96664.00;;;;5065889;28;20398;-66
2021/07/19 06:50:10;;;;;;;8.33;3.63;;;23.70;90.50;23.70;96663.00;;;;5065705;28;20207;-66
2021/07/19 06:53:00;;;;;;;7.07;4.87;;;23.70;91.30;23.80;96661.00;;;;5064058;28;20212;-66
2021/07/19 06:55:49;;;;;;;4.10;3.40;;;23.80;91.00;23.60;96683.00;;;;5060740;28;20218;-66
2021/07/19 06:58:38;;;;;;;8.73;4.33;;;23.70;90.70;23.60;96680.00;;;;5066863;28;20200;-66
2021/07/19 07:01:27;;;;;;;8.17;4.33;;;23.70;90.70;23.80;96691.00;;;;5066918;28;20289;-66
2021/07/19 07:04:16;;;;;;;6.50;3.50;;;23.70;90.70;23.70;96690.00;;;;5057412;28;20470;-65
2021/07/19 07:07:05;;;;;;;7.07;3.93;;;23.70;90.30;23.80;96686.00;;;;5064054;28;20668;-66
2021/07/19 07:09:56;;;;;;;5.50;3.93;;;23.70;90.50;23.90;96679.00;;;;5060689;28;20704;-65
2021/07/19 07:12:45;;;;;;;6.13;4.07;;;23.80;90.20;24.10;96687.00;;;;5058242;28;20761;-65
2021/07/19 07:15:34;;;;;;;6.43;3.73;;;24.40;90.90;24.10;96691.00;;;;5065570;28;20200;-66
2021/07/19 07:18:23;;;;;;;10.00;4.37;;;24.00;88.90;24.10;96697.00;;;;5064258;28;20293;-65
2021/07/19 07:21:11;;;;;;;6.43;3.57;;;24.00;88.30;24.00;96699.00;;;;5082278;28;20260;-64
2021/07/19 07:24:01;;;;;;;6.87;3.97;;;24.00;89.10;24.00;96679.00;;;;5087558;28;20219;-66
2021/07/19 07:26:51;;;;;;;9.93;4.60;;;24.00;89.20;23.90;96693.00;;;;5084008;28;20202;-65
2021/07/19 07:29:41;;;;;;;7.00;3.80;;;24.00;88.20;23.70;96698.00;;;;5082108;28;20216;-65
2021/07/19 07:32:30;;;;;;;8.60;3.63;;;24.00;88.60;23.90;96698.00;;;;5078515;28;20212;-65
2021/07/19 07:35:20;;;;;;;6.77;4.37;;;24.00;89.00;24.00;96705.00;;;;5085234;28;20261;-64
2021/07/19 07:38:09;;;;;;;7.00;4.10;;;24.00;88.50;24.00;96699.00;;;;5083264;28;20631;-65
2021/07/19 07:40:58;;;;;;;6.17;3.27;;;24.00;88.90;23.90;96704.00;;;;5085774;28;20255;-65
2021/07/19 07:43:48;;;;;;;5.80;3.10;;;24.00;87.50;23.80;96690.00;;;;5084282;28;20231;-65
2021/07/19 07:46:39;;;;;;;8.27;3.17;;;24.00;87.60;24.40;96680.00;;;;5083551;28;20692;-65
2021/07/19 07:49:28;;;;;;;6.10;3.33;;;24.10;84.70;24.70;96679.00;;;;5081479;28;20577;-65
2021/07/19 07:52:17;;;;;;;8.13;3.77;;;24.30;85.70;25.30;96675.00;;;;5084232;28;20219;-65
2021/07/19 07:55:08;;;;;;;7.50;3.50;;;24.60;86.50;25.80;96674.00;;;;5084329;28;20194;-65
2021/07/19 07:57:57;;;;;;;5.57;3.50;;;25.00;87.00;25.90;96667.00;;;;5083779;28;20213;-66
2021/07/19 08:00:47;;;;;;;5.10;3.43;;;25.30;85.60;26.10;96669.00;;;;5087078;28;20226;-66
2021/07/19 08:03:36;;;;;;;8.43;3.20;;;25.60;83.20;26.10;96665.00;;;;5081043;28;20711;-65
2021/07/19 08:06:25;;;;;;;9.67;3.60;;;25.80;81.00;26.30;96659.00;;;;5084007;28;20304;-65
2021/07/19 08:09:14;;;;;;;7.40;4.67;;;26.00;78.80;26.70;96666.00;;;;5085207;28;20723;-65
2021/07/19 08:12:04;;;;;;;4.43;3.27;;;26.20;78.50;26.60;96676.00;;;;5085558;28;20279;-65
2021/07/19 08:14:53;;;;;;;9.83;3.30;;;26.40;77.90;25.80;96679.00;;;;5086545;28;20206;-65
2021/07/19 08:17:44;;;;;;;6.80;3.17;;;26.30;75.00;25.60;96677.00;;;;5084596;28;20206;-65
2021/07/19 08:20:34;;;;;;;5.63;3.13;;;26.10;74.80;25.50;96694.00;;;;5083035;28;20219;-65
2021/07/19 08:23:23;;;;;;;5.50;3.23;;;25.90;74.80;25.90;96659.00;;;;5081464;28;20741;-65
2021/07/19 08:26:12;;;;;;;10.10;3.90;;;25.90;75.50;26.20;96679.00;;;;5080339;28;20217;-65
2021/07/19 08:29:01;;;;;;;8.13;3.77;;;25.90;77.00;26.70;96662.00;;;;5083531;28;20677;-67
2021/07/19 08:31:50;;;;;;;8.43;3.13;;;26.10;77.10;26.60;96668.00;;;;5082146;28;20327;-66
2021/07/19 08:34:41;;;;;;;6.80;3.60;;;26.40;75.20;27.00;96687.00;;;;5080979;28;20211;-67
2021/07/19 08:37:31;;;;;;;7.83;3.30;;;26.50;75.00;27.10;96682.00;;;;5083268;28;20214;-66
2021/07/19 08:40:20;;;;;;;10.63;3.63;;;26.70;74.10;26.90;96673.00;;;;5081514;28;20260;-67
2021/07/19 08:43:11;;;;;;;9.70;3.83;;;26.80;72.80;27.40;96680.00;;;;5081770;28;20227;-66
2021/07/19 08:46:01;;;;;;;5.93;3.50;;;27.00;72.80;27.70;96690.00;;;;5084320;28;20225;-66
2021/07/19 08:48:52;;;;;;;6.57;2.93;;;27.20;73.90;27.40;96667.00;;;;5082591;28;20213;-66
2021/07/19 08:51:44;;;;;;;3.80;2.87;;;27.30;71.50;28.00;96684.00;;;;5083016;28;20209;-67
2021/07/19 08:54:35;;;;;;;4.57;3.03;;;27.50;72.10;28.10;96680.00;;;;5083309;28;20992;-66
2021/07/19 08:57:24;;;;;;;7.53;2.97;;;27.60;71.10;28.10;96670.00;;;;5083701;28;20202;-67
2021/07/19 09:00:16;;;;;;;5.73;2.90;;;27.80;69.60;28.40;96681.00;;;;5084841;28;20202;-66
2021/07/19 09:03:05;;;;;;;4.00;3.03;;;28.00;70.40;27.50;96668.00;;;;5086577;28;20226;-67
2021/07/19 09:05:54;;;;;;;4.53;2.97;;;27.90;67.40;27.80;96682.00;;;;5085517;28;20804;-66
2021/07/19 09:08:49;;;;;;;6.57;3.17;;;28.00;68.80;27.90;96672.00;;;;5087461;28;20234;-65
2021/07/19 09:11:49;;;;;;;6.03;2.57;;;28.00;65.80;27.70;96687.00;;;;5085289;28;20974;-65
2021/07/19 09:14:41;;;;;;;9.80;2.93;;;27.90;65.30;27.90;96675.00;;;;5086237;28;20701;-65
2021/07/19 09:17:31;;;;;;;3.57;2.20;;;27.90;67.00;27.80;96677.00;;;;5087974;28;20708;-64
2021/07/19 09:20:29;;;;;;;6.20;3.00;;;27.90;65.90;28.20;96676.00;;;;5086383;28;20210;-66
2021/07/19 09:23:28;;;;;;;6.53;3.10;;;27.90;65.80;28.30;96688.00;;;;5084566;28;20229;-66
2021/07/19 09:26:18;;;;;;;5.93;2.17;;;28.00;65.90;27.90;96671.00;;;;5086892;28;20222;-65
2021/07/19 09:29:10;;;;;;;5.83;2.37;;;28.00;64.30;28.00;96677.00;;;;5084084;28;21713;-66
2021/07/19 09:32:01;;;;;;;4.27;3.20;;;28.00;64.00;28.20;96679.00;;;;5084214;28;20268;-65
2021/07/19 09:34:50;;;;;;;3.27;2.43;;;28.10;63.40;28.40;96670.00;;;;5086328;28;20259;-65
2021/07/19 09:37:42;;;;;;;3.73;2.43;;;28.10;63.80;28.10;96671.00;;;;5086518;28;21024;-66
2021/07/19 09:40:32;;;;;;;4.43;2.30;;;28.10;63.10;28.20;96655.00;;;;5085384;28;20685;-66
2021/07/19 09:43:26;;;;;;;5.13;3.13;;;28.20;62.20;28.50;96655.00;;;;5084284;28;20221;-66
2021/07/19 09:46:25;;;;;;;4.37;2.10;;;28.40;63.80;28.00;96667.00;;;;5083655;28;20740;-65
2021/07/19 09:49:14;;;;;;;4.87;2.67;;;28.30;62.20;27.90;96681.00;;;;5084721;28;20205;-66
2021/07/19 09:52:06;;;;;;;5.53;2.37;;;28.10;62.60;28.40;96668.00;;;;5086494;28;20713;-65
2021/07/19 09:54:55;;;;;;;4.90;2.10;;;28.10;61.10;28.40;96657.00;;;;5087986;28;20202;-65
2021/07/19 09:57:54;;;;;;;6.87;2.80;;;28.30;63.80;28.90;96693.00;;;;5085096;28;20209;-65
2021/07/19 10:00:48;;;;;;;4.20;2.50;;;28.50;63.80;27.30;96691.00;;;;5086002;28;20954;-66
2021/07/19 10:03:37;;;;;;;5.03;2.50;;;28.10;59.10;27.80;96682.00;;;;5084383;28;20218;-65
2021/07/19 10:06:30;;;;;;;2.80;2.00;;;28.00;61.40;27.80;96689.00;;;;5085249;28;20222;-65
2021/07/19 10:09:22;;;;;;;8.77;1.97;;;27.90;62.30;27.80;96665.00;;;;5084606;28;20210;-66
2021/07/19 10:12:17;;;;;;;5.13;2.10;;;27.80;61.20;27.80;96692.00;;;;5085520;28;20221;-66
2021/07/19 10:15:10;;;;;;;4.33;2.07;;;27.80;60.30;26.90;96695.00;;;;5085263;28;20261;-66
2021/07/19 10:18:11;;;;;;;4.17;2.10;;;27.50;59.30;27.50;96687.00;;;;5082790;28;20252;-66
2021/07/19 10:21:01;;;;;;;5.60;1.60;;;27.50;61.10;27.30;96678.00;;;;5084379;28;20215;-66
2021/07/19 10:23:50;;;;;;;2.77;1.47;;;27.50;59.30;27.40;96670.00;;;;5087478;28;20242;-65
2021/07/19 10:26:39;;;;;;;7.83;1.90;;;27.60;58.90;28.00;96667.00;;;;5085396;28;20234;-67
2021/07/19 10:29:28;;;;;;;4.67;1.70;;;27.60;60.50;28.80;96660.00;;;;5086133;28;20258;-67
2021/07/19 10:32:22;;;;;;;3.83;2.07;;;27.90;61.10;29.60;96659.00;;;;5086827;28;20230;-66
2021/07/19 10:35:13;;;;;;;4.40;1.90;;;28.30;61.60;29.40;96661.00;;;;5083611;28;20336;-65
2021/07/19 10:38:11;;;;;;;3.00;1.47;;;28.80;58.30;29.50;96651.00;;;;5088805;28;20206;-66
2021/07/19 10:41:01;;;;;;;4.73;1.63;;;29.10;57.30;29.50;96657.00;;;;5087381;28;20274;-66
2021/07/19 10:44:03;;;;;;;3.67;2.07;;;29.30;56.90;28.80;96644.00;;;;5086796;28;20227;-68
2021/07/19 10:46:52;;;;;;;6.53;1.83;;;29.30;56.90;29.90;96648.00;;;;5085800;28;20226;-68
2021/07/19 10:49:43;;;;;;;3.00;1.73;;;29.40;57.40;30.40;96649.00;;;;5083940;28;20213;-68
2021/07/19 10:52:37;;;;;;;4.77;2.50;;;29.60;58.20;30.20;96649.00;;;;5086667;28;20224;-68
2021/07/19 10:55:29;;;;;;;4.10;2.07;;;29.80;56.70;30.40;96655.00;;;;5087531;28;20211;-68
2021/07/19 10:58:19;;;;;;;3.63;2.00;;;30.00;55.30;31.00;96656.00;;;;5067251;28;20262;-68
2021/07/19 11:01:21;;;;;;;5.37;2.70;;;30.20;56.80;30.50;96661.00;;;;5087906;28;20252;-70
2021/07/19 11:04:16;;;;;;;2.17;1.47;;;30.30;56.30;29.90;96652.00;;;;5084286;28;20207;-71
2021/07/19 11:07:12;;;;;;;3.67;1.90;;;30.10;54.70;30.90;96649.00;;;;5089457;28;20272;-71
2021/07/19 11:10:02;;;;;;;5.63;1.83;;;30.20;55.90;30.40;96646.00;;;;5085037;28;20212;-71
2021/07/19 11:12:54;;;;;;;1.73;1.50;;;30.30;53.60;30.60;96639.00;;;;5083133;28;20779;-69
2021/07/19 11:15:43;;;;;;;3.17;1.37;;;30.40;53.90;30.80;96642.00;;;;5085236;28;20206;-71
2021/07/19 11:18:32;;;;;;;3.65;1.75;;;30.40;54.50;30.60;96632.00;;;;5084988;28;20211;-70
2021/07/19 11:21:24;;;;;;;3.33;2.08;;;30.50;53.10;31.00;96635.00;;;;5086174;28;20218;-70
2021/07/19 11:24:17;;;;;;;3.00;1.60;;;30.60;54.20;30.50;96620.00;;;;5082308;28;20213;-70
2021/07/19 11:27:08;;;;;;;2.35;1.50;;;30.70;52.10;31.80;96613.00;;;;5081165;28;20743;-71
2021/07/19 11:30:01;;;;;;;3.70;1.58;;;30.90;53.60;32.20;96613.00;;;;5085825;28;20746;-72
2021/07/19 11:32:53;;;;;;;6.55;1.90;;;31.30;54.20;31.80;96630.00;;;;5083735;28;20224;-71
2021/07/19 11:35:42;;;;;;;2.95;2.00;;;31.50;52.90;31.10;96613.00;;;;5081918;28;20559;-71
2021/07/19 11:38:39;;;;;;;9.00;3.17;;;31.20;51.70;30.70;96616.00;;;;5084002;28;23859;-71
2021/07/19 11:41:32;;;;;;;2.72;1.65;;;31.00;51.10;29.90;96602.00;;;;5086534;28;20583;-70
2021/07/19 11:44:23;;;;;;;4.50;2.47;;;30.70;51.00;31.60;96607.00;;;;5086125;28;20205;-71
2021/07/19 11:47:17;;;;;;;9.73;3.53;;;30.90;54.00;32.20;96605.00;;;;5085252;27;20220;-70
2021/07/19 11:50:07;;;;;;;6.47;2.80;;;31.20;53.10;32.30;96604.00;;;;5089307;28;20210;-71
2021/07/19 11:52:57;;;;;;;5.57;2.80;;;31.50;52.70;31.60;96599.00;;;;5088614;28;20229;-73
2021/07/19 11:55:46;;;;;;;1.90;1.30;;;31.60;51.20;31.60;96591.00;;;;5085954;28;20253;-72
2021/07/19 11:58:36;;;;;;;2.50;1.38;;;31.70;50.50;31.90;96592.00;;;;5087852;28;20276;-71
2021/07/19 12:01:31;;;;;;;2.20;1.40;;;31.70;50.10;32.40;96596.00;;;;5088134;28;20690;-72
2021/07/19 12:04:21;;;;;;;4.03;1.60;;;31.90;51.10;32.40;96596.00;;;;5088439;28;20257;-72
2021/07/19 12:07:12;;;;;;;4.30;1.65;;;32.00;51.20;30.80;96592.00;;;;5090803;28;20228;-71
2021/07/19 12:10:04;;;;;;;3.67;1.90;;;31.90;49.40;31.40;96601.00;;;;5085725;28;20349;-70
2021/07/19 12:12:53;;;;;;;5.10;1.38;;;31.60;50.40;30.80;96590.00;;;;5085571;28;20223;-70
2021/07/19 12:15:52;;;;;;;5.53;2.15;;;31.10;50.80;31.90;96589.00;;;;5088313;28;20201;-72
2021/07/19 12:18:46;;;;;;;1.60;1.02;;;31.20;53.20;32.00;96583.00;;;;5087429;28;20314;-70
2021/07/19 12:21:41;;;;;;;4.00;1.60;;;31.50;50.80;32.90;96581.00;;;;5086689;28;20208;-71
2021/07/19 12:24:32;;;;;;;7.63;2.05;;;31.80;51.40;32.60;96570.00;;;;5085526;28;20690;-70
2021/07/19 12:27:22;;;;;;;3.47;1.40;;;32.10;50.70;32.50;96584.00;;;;5085027;28;20715;-70
2021/07/19 12:30:13;;;;;;;7.57;1.88;;;32.20;50.50;31.70;96576.00;;;;5085209;28;20761;-71
2021/07/19 12:33:02;;;;;;;4.82;1.83;;;32.00;50.80;31.60;96562.00;;;;5092883;28;20717;-70
2021/07/19 12:35:53;;;;;;;2.90;1.38;;;31.90;50.00;32.00;96558.00;;;;5090266;28;20208;-69
2021/07/19 12:38:42;;;;;;;3.83;2.30;;;32.00;51.30;32.00;96562.00;;;;5091291;28;20222;-70
2021/07/19 12:41:32;;;;;;;6.20;1.88;;;31.90;50.20;32.50;96559.00;;;;5095373;28;20560;-70